createdAt,value
2018-02-09T00:02:17.990Z,75.98
2018-02-09T00:04:47.731Z,76.05
2018-02-09T00:07:17.148Z,75.59
2018-02-09T00:09:46.478Z,75.38
2018-02-09T00:12:16.083Z,75.47
2018-02-09T00:14:45.510Z,75.31
2018-02-09T00:17:14.889Z,75.45
2018-02-09T00:19:44.873Z,75.56
2018-02-09T00:22:14.412Z,75.46
2018-02-09T00:24:43.648Z,75.39
2018-02-09T00:27:12.954Z,75.45
2018-02-09T00:29:42.211Z,75.17
2018-02-09T00:32:11.512Z,75.55
2018-02-09T00:34:40.781Z,75.57
2018-02-09T00:37:09.996Z,75.58
2018-02-09T00:39:40.030Z,75.43
2018-02-09T00:42:10.085Z,75.14
2018-02-09T00:44:39.410Z,74.97
2018-02-09T00:47:08.640Z,75.30
2018-02-09T00:49:38.899Z,75.12
2018-02-09T00:52:08.848Z,74.88
2018-02-09T00:54:38.123Z,74.28
2018-02-09T00:57:07.345Z,74.61
2018-02-09T00:59:36.697Z,74.55
2018-02-09T01:02:05.914Z,74.88
2018-02-09T01:04:35.278Z,74.77
2018-02-09T01:07:04.532Z,74.77
2018-02-09T01:09:33.798Z,74.40
2018-02-09T01:12:03.047Z,74.55
2018-02-09T01:14:33.061Z,74.37
2018-02-09T01:17:02.315Z,74.52
2018-02-09T01:19:31.548Z,74.34
2018-02-09T01:22:00.833Z,74.28
2018-02-09T01:24:30.108Z,74.14
2018-02-09T01:26:59.380Z,74.06
2018-02-09T01:29:28.615Z,74.54
2018-02-09T01:31:57.868Z,74.66
2018-02-09T01:34:27.070Z,74.78
2018-02-09T01:36:57.075Z,74.48
2018-02-09T01:39:27.083Z,74.38
2018-02-09T01:41:57.110Z,74.58
2018-02-09T01:44:26.366Z,74.67
2018-02-09T01:46:55.597Z,74.75
2018-02-09T01:49:25.627Z,74.90
2018-02-09T01:51:54.974Z,74.80
2018-02-09T01:54:24.246Z,74.81
2018-02-09T01:56:53.545Z,74.77
2018-02-09T01:59:23.020Z,74.52
2018-02-09T02:01:52.854Z,74.41
2018-02-09T02:04:22.293Z,74.36
2018-02-09T02:06:51.523Z,74.61
2018-02-09T02:09:20.821Z,74.58
2018-02-09T02:11:50.023Z,74.35
2018-02-09T02:14:19.282Z,74.22
2018-02-09T02:16:48.516Z,74.34
2018-02-09T02:19:17.746Z,74.24
2018-02-09T02:21:46.960Z,74.16
2018-02-09T02:24:16.858Z,74.29
2018-02-09T02:26:46.091Z,74.25
2018-02-09T02:29:15.363Z,74.22
2018-02-09T02:31:44.618Z,74.29
2018-02-09T02:34:13.947Z,74.49
2018-02-09T02:36:43.940Z,74.36
2018-02-09T02:39:13.979Z,74.45
2018-02-09T02:41:44.012Z,74.33
2018-02-09T02:44:13.226Z,74.18
2018-02-09T02:46:42.455Z,74.19
2018-02-09T02:49:11.686Z,74.47
2018-02-09T02:51:40.986Z,74.73
2018-02-09T02:54:10.224Z,74.86
2018-02-09T02:56:39.443Z,74.96
2018-02-09T02:59:08.798Z,75.05
2018-02-09T03:01:37.997Z,74.98
2018-02-09T03:04:07.219Z,74.56
2018-02-09T03:06:36.505Z,75.23
2018-02-09T03:09:05.834Z,75.36
2018-02-09T03:11:35.069Z,75.15
2018-02-09T03:14:04.304Z,75.28
2018-02-09T03:16:33.530Z,75.37
2018-02-09T03:19:03.572Z,75.26
2018-02-09T03:21:32.851Z,75.50
2018-02-09T03:24:02.107Z,75.39
2018-02-09T03:26:31.318Z,75.67
2018-02-09T03:29:01.355Z,75.74
2018-02-09T03:31:30.648Z,75.82
2018-02-09T03:33:59.876Z,75.96
2018-02-09T03:36:29.908Z,75.62
2018-02-09T03:38:59.160Z,75.57
2018-02-09T03:41:28.543Z,75.70
2018-02-09T03:43:57.840Z,76.00
2018-02-09T03:46:27.070Z,75.73
2018-02-09T03:48:57.079Z,75.93
2018-02-09T03:51:26.413Z,75.94
2018-02-09T03:53:56.657Z,75.99
2018-02-09T03:56:25.874Z,75.94
2018-02-09T03:58:55.114Z,76.15
2018-02-09T04:01:24.362Z,76.13
2018-02-09T04:03:53.574Z,76.33
2018-02-09T04:06:22.832Z,76.38
2018-02-09T04:08:52.882Z,76.72
2018-02-09T04:11:22.136Z,76.89
2018-02-09T04:13:51.357Z,76.67
2018-02-09T04:16:20.626Z,76.79
2018-02-09T04:18:49.835Z,77.00
2018-02-09T04:21:19.858Z,76.97
2018-02-09T04:23:49.080Z,76.98
2018-02-09T04:26:18.483Z,76.84
2018-02-09T04:28:47.874Z,77.01
2018-02-09T04:31:17.138Z,76.91
2018-02-09T04:33:46.362Z,76.92
2018-02-09T04:36:15.603Z,76.97
2018-02-09T04:38:44.808Z,76.95
2018-02-09T04:41:14.233Z,76.97
2018-02-09T04:43:43.605Z,77.03
2018-02-09T04:46:13.041Z,77.04
2018-02-09T04:48:42.409Z,77.05
2018-02-09T04:51:11.598Z,77.13
2018-02-09T04:53:40.846Z,77.37
2018-02-09T04:56:11.039Z,77.23
2018-02-09T04:58:40.369Z,77.09
2018-02-09T05:01:10.510Z,77.47
2018-02-09T05:03:39.751Z,77.17
2018-02-09T05:06:08.981Z,77.16
2018-02-09T05:08:39.012Z,77.17
2018-02-09T05:11:09.083Z,77.34
2018-02-09T05:13:38.362Z,77.26
2018-02-09T05:16:07.621Z,77.31
2018-02-09T05:18:37.791Z,77.30
2018-02-09T05:21:07.048Z,77.10
2018-02-09T05:23:36.402Z,77.14
2018-02-09T05:26:05.648Z,77.18
2018-02-09T05:28:35.620Z,76.89
2018-02-09T05:31:04.950Z,76.91
2018-02-09T05:33:34.178Z,76.90
2018-02-09T05:36:03.431Z,76.60
2018-02-09T05:38:32.688Z,76.71
2018-02-09T05:41:02.077Z,76.80
2018-02-09T05:43:31.299Z,76.65
2018-02-09T05:46:00.579Z,76.39
2018-02-09T05:48:29.837Z,76.53
2018-02-09T05:50:59.053Z,76.43
2018-02-09T05:53:29.034Z,76.30
2018-02-09T05:55:58.870Z,75.93
2018-02-09T05:58:28.131Z,76.22
2018-02-09T06:00:57.360Z,76.28
2018-02-09T06:03:27.358Z,76.04
2018-02-09T06:05:56.562Z,76.04
2018-02-09T06:08:25.817Z,76.04
2018-02-09T06:10:55.864Z,76.02
2018-02-09T06:13:25.855Z,75.97
2018-02-09T06:15:55.131Z,75.98
2018-02-09T06:18:25.139Z,76.12
2018-02-09T06:20:54.480Z,76.18
2018-02-09T06:23:23.728Z,76.22
2018-02-09T06:25:53.780Z,76.05
2018-02-09T06:28:23.014Z,76.14
2018-02-09T06:30:52.295Z,76.26
2018-02-09T06:33:21.510Z,76.25
2018-02-09T06:35:50.853Z,76.54
2018-02-09T06:38:20.291Z,76.20
2018-02-09T06:40:49.543Z,76.36
2018-02-09T06:43:19.217Z,76.32
2018-02-09T06:45:48.519Z,76.35
2018-02-09T06:48:17.792Z,76.54
2018-02-09T06:50:47.062Z,76.28
2018-02-09T06:53:18.023Z,76.38
2018-02-09T06:55:48.022Z,76.58
2018-02-09T06:58:17.245Z,76.81
2018-02-09T07:00:46.458Z,76.58
2018-02-09T07:03:15.670Z,76.69
2018-02-09T07:05:44.931Z,76.66
2018-02-09T07:08:14.208Z,76.66
2018-02-09T07:10:43.438Z,76.65
2018-02-09T07:13:12.706Z,76.40
2018-02-09T07:15:41.938Z,76.49
2018-02-09T07:18:11.202Z,76.50
2018-02-09T07:20:41.343Z,76.58
2018-02-09T07:23:10.590Z,76.43
2018-02-09T07:25:39.821Z,76.44
2018-02-09T07:28:09.060Z,76.47
2018-02-09T07:30:38.432Z,76.50
2018-02-09T07:33:07.670Z,76.50
2018-02-09T07:35:36.881Z,76.32
2018-02-09T07:38:06.128Z,76.26
2018-02-09T07:40:35.357Z,76.00
2018-02-09T07:43:04.748Z,76.12
2018-02-09T07:45:34.032Z,76.06
2018-02-09T07:48:03.303Z,75.89
2018-02-09T07:50:32.851Z,75.87
2018-02-09T07:53:02.125Z,76.04
2018-02-09T07:55:31.380Z,75.79
2018-02-09T07:58:00.699Z,75.86
2018-02-09T08:00:30.086Z,75.67
2018-02-09T08:02:59.361Z,75.16
2018-02-09T08:05:28.602Z,75.43
2018-02-09T08:07:58.595Z,75.36
2018-02-09T08:10:27.906Z,74.88
2018-02-09T08:12:57.152Z,74.93
2018-02-09T08:15:26.386Z,74.51
2018-02-09T08:17:56.410Z,74.42
2018-02-09T08:20:25.678Z,74.42
2018-02-09T08:22:54.899Z,74.33
2018-02-09T08:25:24.133Z,73.94
2018-02-09T08:27:53.390Z,73.62
2018-02-09T08:30:22.651Z,73.49
2018-02-09T08:32:52.080Z,73.56
2018-02-09T08:35:21.299Z,73.28
2018-02-09T08:37:51.330Z,73.46
2018-02-09T08:40:21.327Z,73.62
2018-02-09T08:42:51.368Z,73.80
2018-02-09T08:45:20.618Z,73.62
2018-02-09T08:47:49.873Z,73.75
2018-02-09T08:50:19.168Z,74.16
2018-02-09T08:52:49.401Z,74.17
2018-02-09T08:55:18.678Z,74.36
2018-02-09T08:57:47.969Z,74.38
2018-02-09T09:00:17.960Z,74.07
2018-02-09T09:02:47.211Z,74.38
2018-02-09T09:05:16.470Z,74.16
2018-02-09T09:07:45.722Z,74.03
2018-02-09T09:10:14.991Z,73.61
2018-02-09T09:12:44.227Z,73.51
2018-02-09T09:15:13.454Z,73.27
2018-02-09T09:17:42.910Z,72.33
2018-02-09T09:20:12.388Z,71.92
2018-02-09T09:22:41.588Z,71.39
2018-02-09T09:25:11.610Z,71.13
2018-02-09T09:27:41.082Z,70.35
2018-02-09T09:30:10.353Z,69.93
2018-02-09T09:32:39.547Z,69.37
2018-02-09T09:35:09.042Z,69.48
2018-02-09T09:37:38.259Z,69.39
2018-02-09T09:40:07.507Z,69.42
2018-02-09T09:42:37.502Z,69.15
2018-02-09T09:45:07.540Z,69.14
2018-02-09T09:47:36.856Z,68.97
2018-02-09T09:50:06.094Z,69.31
2018-02-09T09:52:35.434Z,69.24
2018-02-09T09:55:04.667Z,68.96
2018-02-09T09:57:33.899Z,68.62
2018-02-09T10:00:03.106Z,68.94
2018-02-09T10:02:39.841Z,68.45
2018-02-09T10:05:09.101Z,68.35
2018-02-09T10:07:39.125Z,67.85
2018-02-09T10:10:08.471Z,68.36
2018-02-09T10:12:37.706Z,68.42
2018-02-09T10:15:07.799Z,68.75
2018-02-09T10:17:37.218Z,67.71
2018-02-09T10:20:07.212Z,67.59
2018-02-09T10:22:36.444Z,67.65
2018-02-09T10:25:06.425Z,67.53
2018-02-09T10:27:35.654Z,67.43
2018-02-09T10:30:05.626Z,67.27
2018-02-09T10:32:34.855Z,66.94
2018-02-09T10:35:05.567Z,66.75
2018-02-09T10:37:34.998Z,66.60
2018-02-09T10:40:05.102Z,67.09
2018-02-09T10:42:34.363Z,67.16
2018-02-09T10:45:03.590Z,66.89
2018-02-09T10:47:32.821Z,66.71
2018-02-09T10:50:03.032Z,66.48
2018-02-09T10:52:32.286Z,66.98
2018-02-09T10:55:01.499Z,67.34
2018-02-09T10:57:30.706Z,67.38
2018-02-09T10:59:59.938Z,67.32
2018-02-09T11:02:29.929Z,67.65
2018-02-09T11:04:59.230Z,67.66
2018-02-09T11:07:28.472Z,67.03
2018-02-09T11:09:57.720Z,66.45
2018-02-09T11:12:27.010Z,66.34
2018-02-09T11:14:57.050Z,66.59
2018-02-09T11:17:26.280Z,66.19
2018-02-09T11:19:55.515Z,66.14
2018-02-09T11:22:24.746Z,65.98
2018-02-09T11:24:53.944Z,65.96
2018-02-09T11:27:23.959Z,65.75
2018-02-09T11:29:53.268Z,66.02
2018-02-09T11:32:22.509Z,65.60
2018-02-09T11:34:51.744Z,65.57
2018-02-09T11:37:21.017Z,64.69
2018-02-09T11:39:50.277Z,64.42
2018-02-09T11:42:19.550Z,64.62
2018-02-09T11:44:48.858Z,65.23
2018-02-09T11:47:18.850Z,65.14
2018-02-09T11:49:49.063Z,64.47
2018-02-09T11:52:18.301Z,64.44
2018-02-09T11:54:48.318Z,64.52
2018-02-09T11:57:17.635Z,63.72
2018-02-09T11:59:46.859Z,63.53
2018-02-09T12:02:16.069Z,63.51
2018-02-09T12:04:45.329Z,64.00
2018-02-09T12:07:14.583Z,63.80
2018-02-09T12:09:43.863Z,63.64
2018-02-09T12:12:13.411Z,63.39
2018-02-09T12:14:42.555Z,63.58
2018-02-09T12:17:11.784Z,63.17
2018-02-09T12:19:41.794Z,63.06
2018-02-09T12:22:11.000Z,62.77
2018-02-09T12:24:41.030Z,63.39
2018-02-09T12:27:11.013Z,63.22
2018-02-09T12:29:40.343Z,63.33
2018-02-09T12:32:10.320Z,63.68
2018-02-09T12:34:39.565Z,63.83
2018-02-09T12:37:09.552Z,63.01
2018-02-09T12:39:38.887Z,62.71
2018-02-09T12:42:08.062Z,62.55
2018-02-09T12:44:37.318Z,62.53
2018-02-09T12:47:06.576Z,62.33
2018-02-09T12:49:36.570Z,62.93
2018-02-09T12:52:05.793Z,62.76
2018-02-09T12:54:35.810Z,63.80
2018-02-09T12:57:05.827Z,63.74
2018-02-09T12:59:35.167Z,64.07
2018-02-09T13:02:04.397Z,63.66
2018-02-09T13:04:33.581Z,64.15
2018-02-09T13:07:02.840Z,64.16
2018-02-09T13:09:32.058Z,64.87
2018-02-09T13:12:01.273Z,65.05
2018-02-09T13:14:54.119Z,65.36
2018-02-09T13:17:23.293Z,65.18
2018-02-09T13:19:52.526Z,65.14
2018-02-09T13:22:39.603Z,65.42
2018-02-09T13:25:08.800Z,65.93
2018-02-09T13:27:38.059Z,65.91
2018-02-09T13:30:07.249Z,66.31
2018-02-09T13:32:54.244Z,66.42
2018-02-09T13:35:23.502Z,66.86
2018-02-09T13:37:52.765Z,67.11
2018-02-09T13:40:22.013Z,67.15
2018-02-09T13:42:51.994Z,67.50
2018-02-09T13:45:23.008Z,67.53
2018-02-09T13:47:53.783Z,67.69
2018-02-09T13:50:23.026Z,67.44
2018-02-09T13:52:52.266Z,67.18
2018-02-09T13:55:22.255Z,67.44
2018-02-09T13:57:51.478Z,67.29
2018-02-09T14:00:20.734Z,67.31
2018-02-09T14:02:49.988Z,67.14
2018-02-09T14:05:20.149Z,67.30
2018-02-09T14:07:49.346Z,67.36
2018-02-09T14:10:18.731Z,67.45
2018-02-09T14:12:47.957Z,67.33
2018-02-09T14:15:17.198Z,67.74
2018-02-09T14:17:46.409Z,68.00
2018-02-09T14:20:15.634Z,67.51
2018-02-09T14:22:44.870Z,67.46
2018-02-09T14:25:14.956Z,67.51
2018-02-09T14:27:44.220Z,67.52
2018-02-09T14:30:13.442Z,67.53
2018-02-09T14:32:42.706Z,67.76
2018-02-09T14:35:11.942Z,67.81
2018-02-09T14:37:41.218Z,67.53
2018-02-09T14:40:10.429Z,67.42
2018-02-09T14:42:39.674Z,67.65
2018-02-09T14:45:08.944Z,67.40
2018-02-09T14:47:38.197Z,67.24
2018-02-09T14:50:08.230Z,67.52
2018-02-09T14:52:37.466Z,67.75
2018-02-09T14:55:06.712Z,67.73
2018-02-09T14:57:35.946Z,67.74
2018-02-09T15:00:05.129Z,67.30
2018-02-09T15:02:34.353Z,67.37
2018-02-09T15:05:03.856Z,67.31
2018-02-09T15:07:33.140Z,67.14
2018-02-09T15:10:02.363Z,67.01
2018-02-09T15:12:31.645Z,67.14
2018-02-09T15:15:00.886Z,67.31
2018-02-09T15:17:31.022Z,67.08
2018-02-09T15:20:00.350Z,67.67
2018-02-09T15:22:29.779Z,67.52
2018-02-09T15:24:59.191Z,67.35
2018-02-09T15:27:28.419Z,67.53
2018-02-09T15:29:57.646Z,67.95
2018-02-09T15:32:27.005Z,68.25
2018-02-09T15:34:56.220Z,68.24
2018-02-09T15:37:25.475Z,68.28
2018-02-09T15:39:55.636Z,68.39
2018-02-09T15:42:24.981Z,68.33
2018-02-09T15:44:54.251Z,68.50
2018-02-09T15:47:23.463Z,68.57
2018-02-09T15:49:52.762Z,68.71
2018-02-09T15:52:22.062Z,68.87
2018-02-09T15:54:51.366Z,69.14
2018-02-09T15:57:22.466Z,69.06
2018-02-09T15:59:52.454Z,69.09
2018-02-09T16:02:21.701Z,69.06
2018-02-09T16:04:50.924Z,69.33
2018-02-09T16:07:20.136Z,69.63
2018-02-09T16:09:49.371Z,69.70
2018-02-09T16:12:19.409Z,69.77
2018-02-09T16:14:48.629Z,69.93
2018-02-09T16:17:17.994Z,70.05
2018-02-09T16:19:47.230Z,70.21
2018-02-09T16:22:16.499Z,70.50
2018-02-09T16:24:45.726Z,70.67
2018-02-09T16:27:14.965Z,70.73
2018-02-09T16:29:44.169Z,70.66
2018-02-09T16:32:13.466Z,71.13
2018-02-09T16:34:43.485Z,71.40
2018-02-09T16:37:13.527Z,71.35
2018-02-09T16:39:42.738Z,71.62
2018-02-09T16:42:12.920Z,71.78
2018-02-09T16:44:42.972Z,71.80
2018-02-09T16:47:12.219Z,71.81
2018-02-09T16:49:42.233Z,71.97
2018-02-09T16:52:11.495Z,72.06
2018-02-09T16:54:40.758Z,72.29
2018-02-09T16:57:10.021Z,72.52
2018-02-09T16:59:39.234Z,72.67
2018-02-09T17:02:08.474Z,72.82
2018-02-09T17:04:37.747Z,72.97
2018-02-09T17:07:07.784Z,72.90
2018-02-09T17:09:37.014Z,73.03
2018-02-09T17:12:06.306Z,73.05
2018-02-09T17:14:35.530Z,72.89
2018-02-09T17:17:04.947Z,72.91
2018-02-09T17:19:34.981Z,72.97
2018-02-09T17:22:04.234Z,73.12
2018-02-09T17:24:33.471Z,73.29
2018-02-09T17:27:02.736Z,73.31
2018-02-09T17:29:32.018Z,73.59
2018-02-09T17:32:01.423Z,73.58
2018-02-09T17:34:30.637Z,73.61
2018-02-09T17:37:01.247Z,73.47
2018-02-09T17:39:30.498Z,73.51
2018-02-09T17:42:00.509Z,73.48
2018-02-09T17:44:30.491Z,73.72
2018-02-09T17:46:59.789Z,73.58
2018-02-09T17:49:29.078Z,73.78
2018-02-09T17:51:59.095Z,73.46
2018-02-09T17:54:28.346Z,73.35
2018-02-09T17:56:58.348Z,73.21
2018-02-09T17:59:28.414Z,73.42
2018-02-09T18:01:57.679Z,73.29
2018-02-09T18:04:27.723Z,73.35
2018-02-09T18:06:56.968Z,73.63
2018-02-09T18:09:26.277Z,73.47
2018-02-09T18:11:55.476Z,73.67
2018-02-09T18:14:24.709Z,73.83
2018-02-09T18:16:53.929Z,73.77
2018-02-09T18:19:23.155Z,73.97
2018-02-09T18:21:52.393Z,73.88
2018-02-09T18:24:21.730Z,73.92
2018-02-09T18:26:51.794Z,74.27
2018-02-09T18:29:21.036Z,74.23
2018-02-09T18:31:50.301Z,74.35
2018-02-09T18:34:19.517Z,74.43
2018-02-09T18:36:48.791Z,74.41
2018-02-09T18:39:18.779Z,74.53
2018-02-09T18:41:47.995Z,74.63
2018-02-09T18:44:17.982Z,74.52
2018-02-09T18:46:47.207Z,74.81
2018-02-09T18:49:16.435Z,75.00
2018-02-09T18:51:46.474Z,74.99
2018-02-09T18:54:15.803Z,75.06
2018-02-09T18:56:45.070Z,75.21
2018-02-09T18:59:14.313Z,75.09
2018-02-09T19:01:43.541Z,75.09
2018-02-09T19:04:12.830Z,75.48
2018-02-09T19:06:42.810Z,75.40
2018-02-09T19:09:12.113Z,75.47
2018-02-09T19:11:41.308Z,75.38
2018-02-09T19:14:10.570Z,75.31
2018-02-09T19:16:39.814Z,75.36
2018-02-09T19:19:09.066Z,75.28
2018-02-09T19:21:38.315Z,75.29
2018-02-09T19:24:08.327Z,75.32
2018-02-09T19:26:38.371Z,75.19
2018-02-09T19:29:08.364Z,74.95
2018-02-09T19:31:38.365Z,75.04
2018-02-09T19:34:09.092Z,74.89
2018-02-09T19:36:38.369Z,74.85
2018-02-09T19:39:07.630Z,74.54
2018-02-09T19:41:37.836Z,74.40
2018-02-09T19:44:07.088Z,74.35
2018-02-09T19:46:36.383Z,74.23
2018-02-09T19:49:05.610Z,74.26
2018-02-09T19:51:36.357Z,74.13
2018-02-09T19:54:05.603Z,74.12
2018-02-09T19:56:35.041Z,73.91
2018-02-09T19:59:04.260Z,73.91
2018-02-09T20:01:34.260Z,74.12
2018-02-09T20:04:03.677Z,74.07
2018-02-09T20:06:33.039Z,73.92
2018-02-09T20:09:02.342Z,73.89
2018-02-09T20:11:31.552Z,73.61
2018-02-09T20:14:00.835Z,73.55
2018-02-09T20:16:30.051Z,73.44
2018-02-09T20:18:59.302Z,73.54
2018-02-09T20:21:32.212Z,73.77
2018-02-09T20:24:02.360Z,73.68
2018-02-09T20:26:31.634Z,73.45
2018-02-09T20:29:00.887Z,73.50
2018-02-09T20:31:30.898Z,73.49
2018-02-09T20:34:00.931Z,73.66
2018-02-09T20:36:30.363Z,73.44
2018-02-09T20:39:00.329Z,73.18
2018-02-09T20:41:29.755Z,73.01
2018-02-09T20:43:58.991Z,73.11
2018-02-09T20:46:28.290Z,73.24
2018-02-09T20:48:57.518Z,73.17
2018-02-09T20:51:26.796Z,72.84
2018-02-09T20:53:56.061Z,72.90
2018-02-09T20:56:25.389Z,72.73
2018-02-09T20:58:54.637Z,72.71
2018-02-09T21:01:23.940Z,72.76
2018-02-09T21:03:53.206Z,72.47
2018-02-09T21:06:22.459Z,72.80
2018-02-09T21:08:52.465Z,72.77
2018-02-09T21:11:22.458Z,72.56
2018-02-09T21:13:52.536Z,72.29
2018-02-09T21:16:22.719Z,72.20
2018-02-09T21:18:53.021Z,72.02
2018-02-09T21:21:23.031Z,72.17
2018-02-09T21:23:52.304Z,72.16
2018-02-09T21:26:21.555Z,72.05
2018-02-09T21:28:50.787Z,72.09
2018-02-09T21:31:20.055Z,72.35
2018-02-09T21:33:49.348Z,72.43
2018-02-09T21:36:18.570Z,72.44
2018-02-09T21:38:47.807Z,72.41
2018-02-09T21:41:18.559Z,72.86
2018-02-09T21:43:48.521Z,72.82
2018-02-09T21:46:17.746Z,72.97
2018-02-09T21:48:46.994Z,73.11
2018-02-09T21:51:16.217Z,73.16
2018-02-09T21:53:46.286Z,73.07
2018-02-09T21:56:16.281Z,73.02
2018-02-09T21:58:45.495Z,73.28
2018-02-09T22:01:15.489Z,73.01
2018-02-09T22:03:46.220Z,73.12
2018-02-09T22:06:15.467Z,73.12
2018-02-09T22:08:44.752Z,73.09
2018-02-09T22:11:14.774Z,73.07
2018-02-09T22:13:43.999Z,73.27
2018-02-09T22:16:13.428Z,73.28
2018-02-09T22:18:42.935Z,73.42
2018-02-09T22:21:12.277Z,73.42
2018-02-09T22:23:42.390Z,73.48
2018-02-09T22:26:12.406Z,73.41
2018-02-09T22:28:42.586Z,73.64
2018-02-09T22:31:11.825Z,73.41
2018-02-09T22:33:41.043Z,73.52
2018-02-09T22:36:10.329Z,73.22
2018-02-09T22:38:40.298Z,73.21
2018-02-09T22:41:09.538Z,73.38
2018-02-09T22:43:38.832Z,73.61
2018-02-09T22:46:08.190Z,73.44
2018-02-09T22:48:37.454Z,73.61
2018-02-09T22:51:06.709Z,73.62
2018-02-09T22:53:35.957Z,73.53
2018-02-09T22:56:06.061Z,73.68
2018-02-09T22:58:35.281Z,73.69
2018-02-09T23:01:04.623Z,73.70
2018-02-09T23:03:33.871Z,74.04
2018-02-09T23:06:03.099Z,73.77
2018-02-09T23:08:32.334Z,73.73
2018-02-09T23:11:02.372Z,73.75
2018-02-09T23:13:31.593Z,73.64
2018-02-09T23:16:00.794Z,73.98
2018-02-09T23:18:30.018Z,74.02
2018-02-09T23:21:00.742Z,74.13
2018-02-09T23:23:30.048Z,74.08
2018-02-09T23:25:59.278Z,74.20
2018-02-09T23:28:29.312Z,74.05
2018-02-09T23:30:58.582Z,74.13
2018-02-09T23:33:28.576Z,74.04
2018-02-09T23:35:57.808Z,74.11
2018-02-09T23:38:27.064Z,74.35
2018-02-09T23:40:56.275Z,74.35
2018-02-09T23:43:25.507Z,74.30
2018-02-09T23:45:54.741Z,74.17
2018-02-09T23:48:23.961Z,74.12
2018-02-09T23:50:53.207Z,74.16
2018-02-09T23:53:22.459Z,74.39
2018-02-09T23:55:51.697Z,74.41
2018-02-09T23:58:20.928Z,74.24
